sensor_id;sensor_type;location;lat;lon;timestamp;P1;durP1;ratioP1;P2;durP2;ratioP2
1140;SDS011;559;48.628;8.924;2023-05-23T00:01:46;225.13;;;212.83;;
1140;SDS011;559;48.628;8.924;2023-05-23T00:04:13;227.73;;;215.93;;
1140;SDS011;559;48.628;8.924;2023-05-23T00:06:43;232.67;;;220.47;;
1140;SDS011;559;48.628;8.924;2023-05-23T00:09:11;234.40;;;221.50;;
1140;SDS011;559;48.628;8.924;2023-05-23T00:11:39;227.70;;;215.37;;
1140;SDS011;559;48.628;8.924;2023-05-23T00:14:09;213.67;;;201.90;;
1140;SDS011;559;48.628;8.924;2023-05-23T00:16:39;229.47;;;217.47;;
1140;SDS011;559;48.628;8.924;2023-05-23T00:19:06;224.77;;;212.57;;
1140;SDS011;559;48.628;8.924;2023-05-23T00:21:34;222.60;;;210.40;;
1140;SDS011;559;48.628;8.924;2023-05-23T00:24:00;213.33;;;201.57;;
1140;SDS011;559;48.628;8.924;2023-05-23T00:26:28;218.77;;;206.97;;
1140;SDS011;559;48.628;8.924;2023-05-23T00:28:56;221.10;;;209.00;;
1140;SDS011;559;48.628;8.924;2023-05-23T00:31:23;226.80;;;214.90;;
1140;SDS011;559;48.628;8.924;2023-05-23T00:33:50;214.30;;;202.47;;
1140;SDS011;559;48.628;8.924;2023-05-23T00:36:16;225.63;;;213.43;;
1140;SDS011;559;48.628;8.924;2023-05-23T00:38:43;229.90;;;217.30;;
1140;SDS011;559;48.628;8.924;2023-05-23T00:41:10;229.17;;;216.33;;
1140;SDS011;559;48.628;8.924;2023-05-23T00:43:37;230.57;;;218.03;;
1140;SDS011;559;48.628;8.924;2023-05-23T00:46:05;227.70;;;215.23;;
1140;SDS011;559;48.628;8.924;2023-05-23T00:48:31;222.97;;;210.60;;
1140;SDS011;559;48.628;8.924;2023-05-23T00:50:58;223.37;;;210.93;;
1140;SDS011;559;48.628;8.924;2023-05-23T00:53:24;238.03;;;224.93;;
1140;SDS011;559;48.628;8.924;2023-05-23T00:55:51;226.37;;;213.77;;
1140;SDS011;559;48.628;8.924;2023-05-23T00:58:18;227.80;;;215.50;;
1140;SDS011;559;48.628;8.924;2023-05-23T01:00:45;236.13;;;223.17;;
1140;SDS011;559;48.628;8.924;2023-05-23T01:03:19;236.37;;;223.50;;
1140;SDS011;559;48.628;8.924;2023-05-23T01:05:47;238.63;;;225.53;;
1140;SDS011;559;48.628;8.924;2023-05-23T01:08:14;250.97;;;237.27;;
1140;SDS011;559;48.628;8.924;2023-05-23T01:10:40;255.80;;;242.00;;
1140;SDS011;559;48.628;8.924;2023-05-23T01:13:12;249.43;;;236.13;;
1140;SDS011;559;48.628;8.924;2023-05-23T01:16:01;239.90;;;226.70;;
1140;SDS011;559;48.628;8.924;2023-05-23T01:18:35;225.67;;;212.77;;
1140;SDS011;559;48.628;8.924;2023-05-23T01:21:07;237.40;;;224.03;;
1140;SDS011;559;48.628;8.924;2023-05-23T01:26:32;237.77;;;224.43;;
1140;SDS011;559;48.628;8.924;2023-05-23T01:29:14;240.90;;;227.27;;
1140;SDS011;559;48.628;8.924;2023-05-23T01:31:44;240.30;;;226.83;;
1140;SDS011;559;48.628;8.924;2023-05-23T01:34:11;250.40;;;236.83;;
1140;SDS011;559;48.628;8.924;2023-05-23T01:36:39;244.93;;;231.40;;
1140;SDS011;559;48.628;8.924;2023-05-23T01:39:09;243.23;;;228.83;;
1140;SDS011;559;48.628;8.924;2023-05-23T01:41:36;257.40;;;242.17;;
1140;SDS011;559;48.628;8.924;2023-05-23T01:44:02;256.07;;;241.27;;
1140;SDS011;559;48.628;8.924;2023-05-23T01:46:30;257.13;;;242.13;;
1140;SDS011;559;48.628;8.924;2023-05-23T01:48:58;249.10;;;233.77;;
1140;SDS011;559;48.628;8.924;2023-05-23T01:51:26;254.53;;;239.73;;
1140;SDS011;559;48.628;8.924;2023-05-23T01:53:53;263.10;;;247.90;;
1140;SDS011;559;48.628;8.924;2023-05-23T01:56:22;258.83;;;244.23;;
1140;SDS011;559;48.628;8.924;2023-05-23T01:58:52;243.40;;;228.20;;
1140;SDS011;559;48.628;8.924;2023-05-23T02:01:19;250.33;;;235.67;;
1140;SDS011;559;48.628;8.924;2023-05-23T02:03:47;234.53;;;220.50;;
1140;SDS011;559;48.628;8.924;2023-05-23T02:06:14;254.37;;;238.97;;
1140;SDS011;559;48.628;8.924;2023-05-23T02:08:41;233.13;;;218.83;;
1140;SDS011;559;48.628;8.924;2023-05-23T02:11:10;243.90;;;228.70;;
1140;SDS011;559;48.628;8.924;2023-05-23T02:13:37;245.47;;;230.73;;
1140;SDS011;559;48.628;8.924;2023-05-23T02:16:06;256.10;;;240.90;;
1140;SDS011;559;48.628;8.924;2023-05-23T02:18:33;258.80;;;243.10;;
1140;SDS011;559;48.628;8.924;2023-05-23T02:21:03;263.47;;;247.40;;
1140;SDS011;559;48.628;8.924;2023-05-23T02:23:31;270.27;;;253.97;;
1140;SDS011;559;48.628;8.924;2023-05-23T02:25:59;265.33;;;248.60;;
1140;SDS011;559;48.628;8.924;2023-05-23T02:28:28;254.93;;;239.20;;
1140;SDS011;559;48.628;8.924;2023-05-23T02:30:57;264.47;;;248.60;;
1140;SDS011;559;48.628;8.924;2023-05-23T02:33:27;256.80;;;241.30;;
1140;SDS011;559;48.628;8.924;2023-05-23T02:36:01;267.90;;;251.43;;
1140;SDS011;559;48.628;8.924;2023-05-23T02:38:37;258.40;;;242.57;;
1140;SDS011;559;48.628;8.924;2023-05-23T02:41:10;265.27;;;248.83;;
1140;SDS011;559;48.628;8.924;2023-05-23T02:43:39;265.57;;;249.37;;
1140;SDS011;559;48.628;8.924;2023-05-23T02:46:05;282.60;;;266.07;;
1140;SDS011;559;48.628;8.924;2023-05-23T02:48:32;272.53;;;255.83;;
1140;SDS011;559;48.628;8.924;2023-05-23T02:50:59;271.27;;;255.07;;
1140;SDS011;559;48.628;8.924;2023-05-23T02:53:29;278.50;;;261.90;;
1140;SDS011;559;48.628;8.924;2023-05-23T02:55:56;274.47;;;257.90;;
1140;SDS011;559;48.628;8.924;2023-05-23T02:58:23;275.20;;;258.00;;
1140;SDS011;559;48.628;8.924;2023-05-23T03:00:49;280.40;;;262.97;;
1140;SDS011;559;48.628;8.924;2023-05-23T03:03:16;281.13;;;263.50;;
1140;SDS011;559;48.628;8.924;2023-05-23T03:05:43;286.63;;;268.70;;
1140;SDS011;559;48.628;8.924;2023-05-23T03:08:09;275.47;;;258.40;;
1140;SDS011;559;48.628;8.924;2023-05-23T03:10:37;262.73;;;246.03;;
1140;SDS011;559;48.628;8.924;2023-05-23T03:13:04;259.60;;;242.70;;
1140;SDS011;559;48.628;8.924;2023-05-23T03:15:33;250.30;;;231.97;;
1140;SDS011;559;48.628;8.924;2023-05-23T03:17:59;266.87;;;249.30;;
1140;SDS011;559;48.628;8.924;2023-05-23T03:20:26;278.20;;;259.57;;
1140;SDS011;559;48.628;8.924;2023-05-23T03:22:55;270.40;;;252.80;;
1140;SDS011;559;48.628;8.924;2023-05-23T03:25:22;288.03;;;269.40;;
1140;SDS011;559;48.628;8.924;2023-05-23T03:27:52;284.83;;;266.43;;
1140;SDS011;559;48.628;8.924;2023-05-23T03:30:19;299.47;;;279.63;;
1140;SDS011;559;48.628;8.924;2023-05-23T03:32:53;292.93;;;274.13;;
1140;SDS011;559;48.628;8.924;2023-05-23T03:35:22;282.40;;;264.00;;
1140;SDS011;559;48.628;8.924;2023-05-23T03:37:48;279.27;;;261.50;;
1140;SDS011;559;48.628;8.924;2023-05-23T03:40:15;291.67;;;272.67;;
1140;SDS011;559;48.628;8.924;2023-05-23T03:42:41;294.80;;;275.63;;
1140;SDS011;559;48.628;8.924;2023-05-23T03:45:17;279.00;;;260.80;;
1140;SDS011;559;48.628;8.924;2023-05-23T03:47:43;277.70;;;259.10;;
1140;SDS011;559;48.628;8.924;2023-05-23T03:50:10;289.13;;;269.92;;
1140;SDS011;559;48.628;8.924;2023-05-23T03:52:36;274.50;;;256.83;;
1140;SDS011;559;48.628;8.924;2023-05-23T03:55:03;271.83;;;253.63;;
1140;SDS011;559;48.628;8.924;2023-05-23T03:57:30;280.60;;;261.90;;
1140;SDS011;559;48.628;8.924;2023-05-23T03:59:59;263.70;;;246.40;;
1140;SDS011;559;48.628;8.924;2023-05-23T04:02:27;268.47;;;251.00;;
1140;SDS011;559;48.628;8.924;2023-05-23T04:05:04;249.40;;;231.60;;
1140;SDS011;559;48.628;8.924;2023-05-23T04:07:34;255.03;;;236.83;;
1140;SDS011;559;48.628;8.924;2023-05-23T04:10:00;252.33;;;234.93;;
1140;SDS011;559;48.628;8.924;2023-05-23T04:12:27;236.33;;;219.83;;
1140;SDS011;559;48.628;8.924;2023-05-23T04:14:55;233.70;;;216.90;;
1140;SDS011;559;48.628;8.924;2023-05-23T04:17:21;241.63;;;224.30;;
1140;SDS011;559;48.628;8.924;2023-05-23T04:19:49;242.77;;;225.07;;
1140;SDS011;559;48.628;8.924;2023-05-23T04:22:16;246.90;;;228.97;;
1140;SDS011;559;48.628;8.924;2023-05-23T04:24:43;239.37;;;222.50;;
1140;SDS011;559;48.628;8.924;2023-05-23T04:27:09;255.27;;;237.70;;
1140;SDS011;559;48.628;8.924;2023-05-23T04:29:37;266.37;;;247.00;;
1140;SDS011;559;48.628;8.924;2023-05-23T04:32:04;265.70;;;247.20;;
1140;SDS011;559;48.628;8.924;2023-05-23T04:34:31;262.83;;;244.23;;
1140;SDS011;559;48.628;8.924;2023-05-23T04:36:59;253.30;;;235.40;;
1140;SDS011;559;48.628;8.924;2023-05-23T04:39:26;261.33;;;243.77;;
1140;SDS011;559;48.628;8.924;2023-05-23T04:41:55;257.37;;;239.50;;
1140;SDS011;559;48.628;8.924;2023-05-23T04:44:23;268.00;;;249.93;;
1140;SDS011;559;48.628;8.924;2023-05-23T04:46:50;263.13;;;245.10;;
1140;SDS011;559;48.628;8.924;2023-05-23T04:49:17;265.17;;;246.60;;
1140;SDS011;559;48.628;8.924;2023-05-23T04:51:45;268.50;;;249.10;;
1140;SDS011;559;48.628;8.924;2023-05-23T04:54:13;249.37;;;231.20;;
1140;SDS011;559;48.628;8.924;2023-05-23T04:56:39;252.73;;;234.03;;
1140;SDS011;559;48.628;8.924;2023-05-23T04:59:06;245.53;;;227.50;;
1140;SDS011;559;48.628;8.924;2023-05-23T05:01:35;255.50;;;237.60;;
1140;SDS011;559;48.628;8.924;2023-05-23T05:04:04;258.37;;;240.70;;
1140;SDS011;559;48.628;8.924;2023-05-23T05:06:30;263.20;;;244.20;;
1140;SDS011;559;48.628;8.924;2023-05-23T05:08:57;260.67;;;242.67;;
1140;SDS011;559;48.628;8.924;2023-05-23T05:11:25;273.20;;;254.40;;
1140;SDS011;559;48.628;8.924;2023-05-23T05:13:52;263.50;;;245.07;;
1140;SDS011;559;48.628;8.924;2023-05-23T05:16:19;254.30;;;236.90;;
1140;SDS011;559;48.628;8.924;2023-05-23T05:18:45;267.23;;;249.03;;
1140;SDS011;559;48.628;8.924;2023-05-23T05:21:12;260.57;;;242.37;;
1140;SDS011;559;48.628;8.924;2023-05-23T05:23:38;246.60;;;228.83;;
1140;SDS011;559;48.628;8.924;2023-05-23T05:26:05;258.40;;;240.20;;
1140;SDS011;559;48.628;8.924;2023-05-23T05:28:33;243.23;;;225.93;;
1140;SDS011;559;48.628;8.924;2023-05-23T05:31:00;256.63;;;238.40;;
1140;SDS011;559;48.628;8.924;2023-05-23T05:33:29;277.27;;;257.10;;
1140;SDS011;559;48.628;8.924;2023-05-23T05:36:00;283.03;;;263.13;;
1140;SDS011;559;48.628;8.924;2023-05-23T05:38:26;264.80;;;245.47;;
1140;SDS011;559;48.628;8.924;2023-05-23T05:40:53;278.93;;;259.83;;
1140;SDS011;559;48.628;8.924;2023-05-23T05:43:19;283.50;;;264.70;;
1140;SDS011;559;48.628;8.924;2023-05-23T05:45:47;273.50;;;254.80;;
1140;SDS011;559;48.628;8.924;2023-05-23T05:48:16;272.50;;;253.20;;
1140;SDS011;559;48.628;8.924;2023-05-23T05:50:42;263.57;;;245.00;;
1140;SDS011;559;48.628;8.924;2023-05-23T05:53:10;251.53;;;233.73;;
1140;SDS011;559;48.628;8.924;2023-05-23T05:55:37;263.40;;;245.07;;
1140;SDS011;559;48.628;8.924;2023-05-23T05:58:03;235.77;;;218.47;;
1140;SDS011;559;48.628;8.924;2023-05-23T06:00:30;257.13;;;239.00;;
1140;SDS011;559;48.628;8.924;2023-05-23T06:02:58;251.07;;;233.27;;
1140;SDS011;559;48.628;8.924;2023-05-23T06:05:24;244.03;;;226.40;;
1140;SDS011;559;48.628;8.924;2023-05-23T06:07:51;242.37;;;224.50;;
1140;SDS011;559;48.628;8.924;2023-05-23T06:10:18;248.20;;;229.90;;
1140;SDS011;559;48.628;8.924;2023-05-23T06:12:44;239.23;;;222.03;;
1140;SDS011;559;48.628;8.924;2023-05-23T06:15:11;246.90;;;229.10;;
1140;SDS011;559;48.628;8.924;2023-05-23T06:17:38;229.33;;;212.23;;
1140;SDS011;559;48.628;8.924;2023-05-23T06:20:06;233.97;;;217.10;;
1140;SDS011;559;48.628;8.924;2023-05-23T06:22:33;228.17;;;211.60;;
1140;SDS011;559;48.628;8.924;2023-05-23T06:25:00;236.50;;;219.53;;
1140;SDS011;559;48.628;8.924;2023-05-23T06:27:26;236.73;;;220.03;;
1140;SDS011;559;48.628;8.924;2023-05-23T06:29:53;245.67;;;228.10;;
1140;SDS011;559;48.628;8.924;2023-05-23T06:32:20;230.97;;;213.47;;
1140;SDS011;559;48.628;8.924;2023-05-23T06:34:46;226.87;;;209.53;;
1140;SDS011;559;48.628;8.924;2023-05-23T06:37:14;221.20;;;204.90;;
1140;SDS011;559;48.628;8.924;2023-05-23T06:39:41;232.07;;;215.67;;
1140;SDS011;559;48.628;8.924;2023-05-23T06:42:11;219.70;;;203.20;;
1140;SDS011;559;48.628;8.924;2023-05-23T06:44:37;221.53;;;205.17;;
1140;SDS011;559;48.628;8.924;2023-05-23T06:47:04;206.57;;;191.90;;
1140;SDS011;559;48.628;8.924;2023-05-23T06:49:32;219.50;;;203.63;;
1140;SDS011;559;48.628;8.924;2023-05-23T06:51:59;217.93;;;202.77;;
1140;SDS011;559;48.628;8.924;2023-05-23T06:54:27;206.67;;;191.83;;
1140;SDS011;559;48.628;8.924;2023-05-23T06:56:53;193.87;;;179.63;;
1140;SDS011;559;48.628;8.924;2023-05-23T06:59:19;196.83;;;182.13;;
1140;SDS011;559;48.628;8.924;2023-05-23T07:01:46;192.97;;;178.13;;
1140;SDS011;559;48.628;8.924;2023-05-23T07:04:13;196.70;;;182.23;;
1140;SDS011;559;48.628;8.924;2023-05-23T07:06:39;201.95;;;187.02;;
1140;SDS011;559;48.628;8.924;2023-05-23T07:09:06;187.67;;;173.47;;
1140;SDS011;559;48.628;8.924;2023-05-23T07:11:34;203.00;;;188.30;;
1140;SDS011;559;48.628;8.924;2023-05-23T07:14:00;204.67;;;189.70;;
1140;SDS011;559;48.628;8.924;2023-05-23T07:16:27;191.20;;;176.50;;
1140;SDS011;559;48.628;8.924;2023-05-23T07:18:53;189.77;;;175.47;;
1140;SDS011;559;48.628;8.924;2023-05-23T07:21:20;190.00;;;176.07;;
1140;SDS011;559;48.628;8.924;2023-05-23T07:23:46;201.77;;;187.23;;
1140;SDS011;559;48.628;8.924;2023-05-23T07:26:13;185.50;;;171.73;;
1140;SDS011;559;48.628;8.924;2023-05-23T07:28:41;190.90;;;176.40;;
1140;SDS011;559;48.628;8.924;2023-05-23T07:31:07;184.10;;;170.03;;
1140;SDS011;559;48.628;8.924;2023-05-23T07:33:34;200.53;;;186.60;;
1140;SDS011;559;48.628;8.924;2023-05-23T07:36:01;205.40;;;191.00;;
1140;SDS011;559;48.628;8.924;2023-05-23T07:38:27;215.77;;;201.03;;
1140;SDS011;559;48.628;8.924;2023-05-23T07:40:53;215.00;;;199.87;;
1140;SDS011;559;48.628;8.924;2023-05-23T07:43:20;216.80;;;201.60;;
1140;SDS011;559;48.628;8.924;2023-05-23T07:45:48;202.43;;;187.43;;
1140;SDS011;559;48.628;8.924;2023-05-23T07:48:14;221.40;;;206.17;;
1140;SDS011;559;48.628;8.924;2023-05-23T07:50:41;215.20;;;199.80;;
1140;SDS011;559;48.628;8.924;2023-05-23T07:53:08;225.57;;;210.17;;
1140;SDS011;559;48.628;8.924;2023-05-23T07:55:34;221.73;;;206.50;;
1140;SDS011;559;48.628;8.924;2023-05-23T07:58:01;204.33;;;189.53;;
1140;SDS011;559;48.628;8.924;2023-05-23T08:00:27;195.80;;;181.80;;
1140;SDS011;559;48.628;8.924;2023-05-23T08:02:55;194.17;;;180.30;;
1140;SDS011;559;48.628;8.924;2023-05-23T08:05:22;197.03;;;182.77;;
1140;SDS011;559;48.628;8.924;2023-05-23T08:07:48;184.00;;;170.10;;
1140;SDS011;559;48.628;8.924;2023-05-23T08:10:17;179.83;;;167.03;;
1140;SDS011;559;48.628;8.924;2023-05-23T08:12:43;171.93;;;159.23;;
1140;SDS011;559;48.628;8.924;2023-05-23T08:15:10;177.47;;;164.67;;
1140;SDS011;559;48.628;8.924;2023-05-23T08:17:37;182.73;;;169.93;;
1140;SDS011;559;48.628;8.924;2023-05-23T08:20:05;183.00;;;170.40;;
1140;SDS011;559;48.628;8.924;2023-05-23T08:22:34;166.37;;;154.57;;
1140;SDS011;559;48.628;8.924;2023-05-23T08:25:00;164.93;;;153.27;;
1140;SDS011;559;48.628;8.924;2023-05-23T08:27:27;168.73;;;156.93;;
1140;SDS011;559;48.628;8.924;2023-05-23T08:29:55;169.77;;;158.10;;
1140;SDS011;559;48.628;8.924;2023-05-23T08:32:22;171.83;;;160.17;;
1140;SDS011;559;48.628;8.924;2023-05-23T08:34:48;159.00;;;147.30;;
1140;SDS011;559;48.628;8.924;2023-05-23T08:37:16;156.00;;;144.83;;
1140;SDS011;559;48.628;8.924;2023-05-23T08:39:42;150.67;;;139.83;;
1140;SDS011;559;48.628;8.924;2023-05-23T08:42:09;141.60;;;131.20;;
1140;SDS011;559;48.628;8.924;2023-05-23T08:44:35;140.03;;;129.73;;
1140;SDS011;559;48.628;8.924;2023-05-23T08:47:02;133.83;;;124.20;;
1140;SDS011;559;48.628;8.924;2023-05-23T08:49:30;130.63;;;120.93;;
1140;SDS011;559;48.628;8.924;2023-05-23T08:51:59;144.67;;;134.03;;
1140;SDS011;559;48.628;8.924;2023-05-23T08:54:28;144.73;;;134.30;;
1140;SDS011;559;48.628;8.924;2023-05-23T08:56:56;139.43;;;129.33;;
1140;SDS011;559;48.628;8.924;2023-05-23T08:59:23;137.80;;;128.03;;
1140;SDS011;559;48.628;8.924;2023-05-23T09:01:51;137.73;;;127.77;;
1140;SDS011;559;48.628;8.924;2023-05-23T09:04:20;144.20;;;133.60;;
1140;SDS011;559;48.628;8.924;2023-05-23T09:06:46;128.30;;;119.20;;
1140;SDS011;559;48.628;8.924;2023-05-23T09:09:13;131.77;;;122.00;;
1140;SDS011;559;48.628;8.924;2023-05-23T09:11:41;130.40;;;121.20;;
1140;SDS011;559;48.628;8.924;2023-05-23T09:14:09;129.60;;;120.50;;
1140;SDS011;559;48.628;8.924;2023-05-23T09:16:38;140.38;;;130.38;;
1140;SDS011;559;48.628;8.924;2023-05-23T09:19:11;135.50;;;125.83;;
1140;SDS011;559;48.628;8.924;2023-05-23T09:21:41;126.27;;;116.67;;
1140;SDS011;559;48.628;8.924;2023-05-23T09:24:08;117.77;;;109.23;;
1140;SDS011;559;48.628;8.924;2023-05-23T09:26:34;120.67;;;111.93;;
1140;SDS011;559;48.628;8.924;2023-05-23T09:29:04;122.33;;;113.83;;
1140;SDS011;559;48.628;8.924;2023-05-23T09:31:31;116.10;;;107.57;;
1140;SDS011;559;48.628;8.924;2023-05-23T09:33:58;111.83;;;103.33;;
1140;SDS011;559;48.628;8.924;2023-05-23T09:36:28;112.70;;;104.60;;
1140;SDS011;559;48.628;8.924;2023-05-23T09:39:00;112.80;;;104.53;;
1140;SDS011;559;48.628;8.924;2023-05-23T09:41:29;114.87;;;106.77;;
1140;SDS011;559;48.628;8.924;2023-05-23T09:43:55;115.13;;;106.80;;
1140;SDS011;559;48.628;8.924;2023-05-23T09:46:26;122.10;;;113.27;;
1140;SDS011;559;48.628;8.924;2023-05-23T09:48:53;120.83;;;111.53;;
1140;SDS011;559;48.628;8.924;2023-05-23T09:51:21;116.07;;;107.30;;
1140;SDS011;559;48.628;8.924;2023-05-23T09:53:49;111.93;;;103.33;;
1140;SDS011;559;48.628;8.924;2023-05-23T09:56:16;108.43;;;100.33;;
1140;SDS011;559;48.628;8.924;2023-05-23T09:58:43;105.93;;;98.20;;
1140;SDS011;559;48.628;8.924;2023-05-23T10:01:12;108.33;;;100.37;;
1140;SDS011;559;48.628;8.924;2023-05-23T10:03:43;102.20;;;94.67;;
1140;SDS011;559;48.628;8.924;2023-05-23T10:06:12;96.40;;;89.40;;
1140;SDS011;559;48.628;8.924;2023-05-23T10:08:43;90.30;;;83.53;;
1140;SDS011;559;48.628;8.924;2023-05-23T10:11:31;90.63;;;84.33;;
1140;SDS011;559;48.628;8.924;2023-05-23T10:14:34;89.83;;;83.53;;
1140;SDS011;559;48.628;8.924;2023-05-23T10:17:10;93.27;;;86.80;;
1140;SDS011;559;48.628;8.924;2023-05-23T10:19:42;90.57;;;84.33;;
1140;SDS011;559;48.628;8.924;2023-05-23T10:22:09;94.20;;;87.13;;
1140;SDS011;559;48.628;8.924;2023-05-23T10:24:37;103.43;;;96.23;;
1140;SDS011;559;48.628;8.924;2023-05-23T10:27:04;102.93;;;95.43;;
1140;SDS011;559;48.628;8.924;2023-05-23T10:29:34;94.93;;;88.33;;
1140;SDS011;559;48.628;8.924;2023-05-23T10:32:01;90.17;;;84.17;;
1140;SDS011;559;48.628;8.924;2023-05-23T10:34:31;90.37;;;84.30;;
1140;SDS011;559;48.628;8.924;2023-05-23T10:37:03;86.97;;;81.17;;
1140;SDS011;559;48.628;8.924;2023-05-23T10:39:34;88.67;;;83.00;;
1140;SDS011;559;48.628;8.924;2023-05-23T10:42:09;89.17;;;83.57;;
1140;SDS011;559;48.628;8.924;2023-05-23T10:44:37;92.23;;;86.37;;
1140;SDS011;559;48.628;8.924;2023-05-23T10:47:05;87.10;;;81.70;;
1140;SDS011;559;48.628;8.924;2023-05-23T10:49:38;88.00;;;82.60;;
1140;SDS011;559;48.628;8.924;2023-05-23T10:52:08;83.80;;;78.43;;
1140;SDS011;559;48.628;8.924;2023-05-23T10:54:35;80.87;;;76.00;;
1140;SDS011;559;48.628;8.924;2023-05-23T10:57:02;79.17;;;74.53;;
1140;SDS011;559;48.628;8.924;2023-05-23T10:59:29;75.33;;;71.03;;
1140;SDS011;559;48.628;8.924;2023-05-23T11:01:55;67.03;;;63.63;;
1140;SDS011;559;48.628;8.924;2023-05-23T11:04:25;64.10;;;60.90;;
1140;SDS011;559;48.628;8.924;2023-05-23T11:06:53;63.83;;;60.80;;
1140;SDS011;559;48.628;8.924;2023-05-23T11:09:22;67.93;;;64.17;;
1140;SDS011;559;48.628;8.924;2023-05-23T11:11:58;73.27;;;69.30;;
1140;SDS011;559;48.628;8.924;2023-05-23T11:14:30;71.87;;;67.90;;
1140;SDS011;559;48.628;8.924;2023-05-23T11:16:58;74.47;;;70.40;;
1140;SDS011;559;48.628;8.924;2023-05-23T11:19:25;79.83;;;75.23;;
1140;SDS011;559;48.628;8.924;2023-05-23T11:21:56;81.73;;;76.90;;
1140;SDS011;559;48.628;8.924;2023-05-23T11:27:15;86.40;;;80.90;;
1140;SDS011;559;48.628;8.924;2023-05-23T11:29:54;84.10;;;78.60;;
1140;SDS011;559;48.628;8.924;2023-05-23T11:32:22;86.10;;;80.60;;
1140;SDS011;559;48.628;8.924;2023-05-23T11:34:49;86.93;;;81.13;;
1140;SDS011;559;48.628;8.924;2023-05-23T11:37:15;91.10;;;85.10;;
1140;SDS011;559;48.628;8.924;2023-05-23T11:39:44;84.13;;;78.77;;
1140;SDS011;559;48.628;8.924;2023-05-23T11:42:12;82.90;;;77.13;;
1140;SDS011;559;48.628;8.924;2023-05-23T11:44:39;83.33;;;78.13;;
1140;SDS011;559;48.628;8.924;2023-05-23T11:47:05;82.73;;;78.00;;
1140;SDS011;559;48.628;8.924;2023-05-23T11:49:36;82.30;;;77.40;;
1140;SDS011;559;48.628;8.924;2023-05-23T11:52:06;84.27;;;79.37;;
1140;SDS011;559;48.628;8.924;2023-05-23T11:54:32;83.67;;;78.77;;
1140;SDS011;559;48.628;8.924;2023-05-23T11:57:08;84.03;;;78.93;;
1140;SDS011;559;48.628;8.924;2023-05-23T11:59:39;83.03;;;78.17;;
1140;SDS011;559;48.628;8.924;2023-05-23T12:02:06;81.60;;;77.10;;
1140;SDS011;559;48.628;8.924;2023-05-23T12:04:33;80.33;;;75.87;;
1140;SDS011;559;48.628;8.924;2023-05-23T12:07:03;73.90;;;70.17;;
1140;SDS011;559;48.628;8.924;2023-05-23T12:09:30;72.53;;;68.83;;
1140;SDS011;559;48.628;8.924;2023-05-23T12:11:59;73.23;;;69.50;;
1140;SDS011;559;48.628;8.924;2023-05-23T12:14:27;74.27;;;70.60;;
1140;SDS011;559;48.628;8.924;2023-05-23T12:16:55;78.17;;;74.03;;
1140;SDS011;559;48.628;8.924;2023-05-23T12:19:22;72.40;;;68.60;;
1140;SDS011;559;48.628;8.924;2023-05-23T12:21:49;79.63;;;75.53;;
1140;SDS011;559;48.628;8.924;2023-05-23T12:24:16;76.50;;;72.30;;
1140;SDS011;559;48.628;8.924;2023-05-23T12:26:46;80.47;;;75.87;;
1140;SDS011;559;48.628;8.924;2023-05-23T12:29:14;78.60;;;74.30;;
1140;SDS011;559;48.628;8.924;2023-05-23T12:31:41;80.33;;;76.23;;
1140;SDS011;559;48.628;8.924;2023-05-23T12:34:11;77.90;;;73.80;;
1140;SDS011;559;48.628;8.924;2023-05-23T12:36:38;75.73;;;72.23;;
1140;SDS011;559;48.628;8.924;2023-05-23T12:39:08;71.93;;;68.33;;
1140;SDS011;559;48.628;8.924;2023-05-23T12:41:35;70.67;;;67.37;;
1140;SDS011;559;48.628;8.924;2023-05-23T12:44:02;74.57;;;71.13;;
1140;SDS011;559;48.628;8.924;2023-05-23T12:46:29;70.87;;;67.27;;
1140;SDS011;559;48.628;8.924;2023-05-23T12:48:55;69.87;;;66.83;;
1140;SDS011;559;48.628;8.924;2023-05-23T12:51:23;66.20;;;63.60;;
1140;SDS011;559;48.628;8.924;2023-05-23T12:53:50;59.87;;;57.57;;
1140;SDS011;559;48.628;8.924;2023-05-23T12:56:16;63.07;;;60.67;;
1140;SDS011;559;48.628;8.924;2023-05-23T12:58:46;68.13;;;65.37;;
1140;SDS011;559;48.628;8.924;2023-05-23T13:01:12;69.23;;;66.37;;
1140;SDS011;559;48.628;8.924;2023-05-23T13:03:39;74.20;;;71.00;;
1140;SDS011;559;48.628;8.924;2023-05-23T13:06:06;77.43;;;73.97;;
1140;SDS011;559;48.628;8.924;2023-05-23T13:08:34;76.30;;;73.00;;
1140;SDS011;559;48.628;8.924;2023-05-23T13:11:00;75.80;;;72.70;;
1140;SDS011;559;48.628;8.924;2023-05-23T13:13:27;73.77;;;70.57;;
1140;SDS011;559;48.628;8.924;2023-05-23T13:15:56;72.57;;;69.37;;
1140;SDS011;559;48.628;8.924;2023-05-23T13:18:23;74.23;;;71.30;;
1140;SDS011;559;48.628;8.924;2023-05-23T13:20:50;74.37;;;71.37;;
1140;SDS011;559;48.628;8.924;2023-05-23T13:23:17;76.63;;;73.93;;
1140;SDS011;559;48.628;8.924;2023-05-23T13:25:45;78.37;;;75.47;;
1140;SDS011;559;48.628;8.924;2023-05-23T13:28:11;68.70;;;66.30;;
1140;SDS011;559;48.628;8.924;2023-05-23T13:30:41;76.10;;;73.43;;
1140;SDS011;559;48.628;8.924;2023-05-23T13:33:07;73.73;;;71.10;;
1140;SDS011;559;48.628;8.924;2023-05-23T13:35:34;61.90;;;59.80;;
1140;SDS011;559;48.628;8.924;2023-05-23T13:38:02;69.13;;;66.53;;
1140;SDS011;559;48.628;8.924;2023-05-23T13:40:29;70.10;;;67.70;;
1140;SDS011;559;48.628;8.924;2023-05-23T13:43:00;78.03;;;75.33;;
1140;SDS011;559;48.628;8.924;2023-05-23T13:45:26;76.73;;;74.03;;
1140;SDS011;559;48.628;8.924;2023-05-23T13:47:54;77.07;;;74.27;;
1140;SDS011;559;48.628;8.924;2023-05-23T13:50:21;83.07;;;80.00;;
1140;SDS011;559;48.628;8.924;2023-05-23T13:52:47;86.53;;;82.90;;
1140;SDS011;559;48.628;8.924;2023-05-23T13:55:14;91.70;;;87.60;;
1140;SDS011;559;48.628;8.924;2023-05-23T13:57:41;90.70;;;86.30;;
1140;SDS011;559;48.628;8.924;2023-05-23T14:00:12;91.07;;;86.37;;
1140;SDS011;559;48.628;8.924;2023-05-23T14:02:40;93.10;;;88.30;;
1140;SDS011;559;48.628;8.924;2023-05-23T14:05:07;98.10;;;93.20;;
1140;SDS011;559;48.628;8.924;2023-05-23T14:07:36;99.13;;;94.43;;
1140;SDS011;559;48.628;8.924;2023-05-23T14:10:05;95.63;;;90.93;;
1140;SDS011;559;48.628;8.924;2023-05-23T14:12:33;98.57;;;94.10;;
1140;SDS011;559;48.628;8.924;2023-05-23T14:14:59;96.60;;;92.00;;
1140;SDS011;559;48.628;8.924;2023-05-23T14:17:27;99.17;;;94.47;;
1140;SDS011;559;48.628;8.924;2023-05-23T14:19:54;94.47;;;89.67;;
1140;SDS011;559;48.628;8.924;2023-05-23T14:22:21;98.03;;;93.43;;
1140;SDS011;559;48.628;8.924;2023-05-23T14:24:47;94.80;;;89.97;;
1140;SDS011;559;48.628;8.924;2023-05-23T14:27:13;96.60;;;91.77;;
1140;SDS011;559;48.628;8.924;2023-05-23T14:29:40;97.20;;;92.40;;
1140;SDS011;559;48.628;8.924;2023-05-23T14:32:10;100.87;;;96.10;;
1140;SDS011;559;48.628;8.924;2023-05-23T14:34:38;101.77;;;96.77;;
1140;SDS011;559;48.628;8.924;2023-05-23T14:37:04;99.10;;;94.10;;
1140;SDS011;559;48.628;8.924;2023-05-23T14:39:31;100.07;;;95.67;;
1140;SDS011;559;48.628;8.924;2023-05-23T14:42:02;101.53;;;96.63;;
1140;SDS011;559;48.628;8.924;2023-05-23T14:44:29;99.80;;;95.30;;
1140;SDS011;559;48.628;8.924;2023-05-23T14:46:56;99.20;;;94.50;;
1140;SDS011;559;48.628;8.924;2023-05-23T14:49:22;104.43;;;99.77;;
1140;SDS011;559;48.628;8.924;2023-05-23T14:51:53;104.60;;;100.00;;
1140;SDS011;559;48.628;8.924;2023-05-23T14:54:20;101.67;;;97.23;;